createdAt,value
2023-02-27T00:02:11.682Z,0.83
2023-02-27T00:04:41.166Z,1.16
2023-02-27T00:07:08.804Z,0.78
2023-02-27T00:09:35.270Z,1.08
2023-02-27T00:12:02.363Z,1.34
2023-02-27T00:14:28.784Z,1.13
2023-02-27T00:16:55.228Z,1.01
2023-02-27T00:19:21.821Z,1.01
2023-02-27T00:21:48.260Z,0.84
2023-02-27T00:24:14.660Z,0.93
2023-02-27T00:26:41.065Z,0.57
2023-02-27T00:29:07.965Z,0.60
2023-02-27T00:31:34.835Z,1.13
2023-02-27T00:34:01.345Z,1.06
2023-02-27T00:36:28.238Z,0.87
2023-02-27T00:38:54.698Z,0.93
2023-02-27T00:41:21.100Z,1.02
2023-02-27T00:43:47.537Z,0.56
2023-02-27T00:46:14.083Z,0.47
2023-02-27T00:48:40.569Z,0.87
2023-02-27T00:51:08.205Z,0.79
2023-02-27T00:53:37.535Z,0.77
2023-02-27T00:56:04.115Z,1.08
2023-02-27T00:58:30.543Z,0.78
2023-02-27T01:00:58.782Z,1.14
2023-02-27T01:03:26.712Z,1.05
2023-02-27T01:05:53.656Z,0.90
2023-02-27T01:08:20.750Z,0.85
2023-02-27T01:10:47.187Z,0.87
2023-02-27T01:13:13.635Z,0.85
2023-02-27T01:15:40.083Z,0.93
2023-02-27T01:18:08.507Z,0.98
2023-02-27T01:20:34.986Z,0.63
2023-02-27T01:23:01.486Z,1.01
2023-02-27T01:25:28.291Z,0.92
2023-02-27T01:27:55.092Z,0.60
2023-02-27T01:30:21.523Z,0.89
2023-02-27T01:32:48.147Z,1.12
2023-02-27T01:35:14.709Z,0.92
2023-02-27T01:37:41.207Z,0.86
2023-02-27T01:40:08.450Z,0.89
2023-02-27T01:42:34.974Z,0.66
2023-02-27T01:45:16.759Z,0.76
2023-02-27T01:47:44.146Z,0.55
2023-02-27T01:50:11.156Z,0.54
2023-02-27T01:52:37.600Z,0.54
2023-02-27T01:55:04.475Z,0.94
2023-02-27T01:57:30.901Z,0.92
2023-02-27T01:59:57.306Z,0.81
2023-02-27T02:02:25.102Z,0.70
2023-02-27T02:04:51.564Z,0.64
2023-02-27T02:07:19.671Z,0.95
2023-02-27T02:09:51.398Z,0.95
2023-02-27T02:12:18.422Z,0.77
2023-02-27T02:14:44.976Z,0.64
2023-02-27T02:17:18.008Z,0.85
2023-02-27T02:19:54.377Z,0.87
2023-02-27T02:22:26.997Z,0.97
2023-02-27T02:25:11.916Z,0.70
2023-02-27T02:27:57.391Z,0.65
2023-02-27T02:30:42.845Z,0.41
2023-02-27T02:33:15.154Z,0.54
2023-02-27T02:36:00.124Z,0.61
2023-02-27T02:38:26.534Z,0.69
2023-02-27T02:40:56.136Z,0.87
2023-02-27T02:43:40.209Z,0.67
2023-02-27T02:46:23.202Z,0.78
2023-02-27T02:48:57.201Z,0.96
2023-02-27T02:51:26.898Z,0.72
2023-02-27T02:53:53.379Z,0.36
2023-02-27T02:56:22.341Z,0.39
2023-02-27T02:58:51.814Z,0.67
2023-02-27T03:01:20.935Z,0.56
2023-02-27T03:03:55.055Z,0.64
2023-02-27T03:06:30.829Z,0.41
2023-02-27T03:09:07.872Z,0.82
2023-02-27T03:11:35.447Z,0.31
2023-02-27T03:14:05.377Z,0.55
2023-02-27T03:16:33.466Z,0.40
2023-02-27T03:19:02.752Z,0.20
2023-02-27T03:21:35.012Z,0.55
2023-02-27T03:24:03.373Z,0.32
2023-02-27T03:26:32.939Z,0.21
2023-02-27T03:29:01.167Z,0.40
2023-02-27T03:31:48.206Z,0.40
2023-02-27T03:34:14.666Z,0.61
2023-02-27T03:36:48.584Z,0.55
2023-02-27T03:39:27.196Z,0.41
2023-02-27T03:41:56.714Z,0.62
2023-02-27T03:44:40.691Z,0.39
2023-02-27T03:47:07.170Z,0.60
2023-02-27T03:49:33.894Z,0.71
2023-02-27T03:52:01.069Z,0.51
2023-02-27T03:54:28.440Z,0.39
2023-02-27T03:57:00.147Z,0.36
2023-02-27T03:59:26.925Z,0.41
2023-02-27T04:01:54.352Z,0.65
2023-02-27T04:04:21.104Z,0.80
2023-02-27T04:07:25.110Z,0.51
2023-02-27T04:10:18.090Z,0.60
2023-02-27T04:12:47.518Z,0.07
2023-02-27T04:15:31.402Z,0.15
2023-02-27T04:18:16.646Z,0.04
2023-02-27T04:21:06.126Z,0.53
2023-02-27T04:23:38.083Z,0.32
2023-02-27T04:26:23.371Z,0.58
2023-02-27T04:29:08.824Z,0.50
2023-02-27T04:31:44.194Z,0.60
2023-02-27T04:34:19.826Z,0.69
2023-02-27T04:36:47.955Z,0.62
2023-02-27T04:39:24.790Z,0.48
2023-02-27T04:41:55.774Z,0.72
2023-02-27T04:44:22.208Z,0.39
2023-02-27T04:46:48.843Z,0.58
2023-02-27T04:49:17.198Z,0.28
2023-02-27T04:51:51.237Z,0.45
2023-02-27T04:54:18.483Z,0.36
2023-02-27T04:56:45.939Z,0.39
2023-02-27T04:59:16.808Z,0.14
2023-02-27T05:02:02.641Z,-0.27
2023-02-27T05:04:30.280Z,0.10
2023-02-27T05:06:57.050Z,0.18
2023-02-27T05:09:29.326Z,0.13
2023-02-27T05:12:03.679Z,0.49
2023-02-27T05:14:30.144Z,0.28
2023-02-27T05:17:00.525Z,0.11
2023-02-27T05:19:26.972Z,0.51
2023-02-27T05:21:56.157Z,0.64
2023-02-27T05:24:32.094Z,0.39
2023-02-27T05:27:07.763Z,0.19
2023-02-27T05:29:42.960Z,0.50
2023-02-27T05:32:19.880Z,0.48
2023-02-27T05:34:51.744Z,0.39
2023-02-27T05:37:20.592Z,0.32
2023-02-27T05:39:47.309Z,0.26
2023-02-27T05:42:17.557Z,0.41
2023-02-27T05:44:45.253Z,0.29
2023-02-27T05:47:13.631Z,0.19
2023-02-27T05:49:40.036Z,0.13
2023-02-27T05:52:08.000Z,0.36
2023-02-27T05:54:39.211Z,0.51
2023-02-27T05:57:07.551Z,0.18
2023-02-27T06:00:06.509Z,0.16
2023-02-27T06:02:38.576Z,0.32
2023-02-27T06:05:06.095Z,0.29
2023-02-27T06:07:33.329Z,0.54
2023-02-27T06:09:59.722Z,0.41
2023-02-27T06:12:26.120Z,-0.12
2023-02-27T06:14:52.553Z,0.31
2023-02-27T06:17:19.008Z,0.38
2023-02-27T06:19:45.444Z,0.28
2023-02-27T06:22:11.856Z,0.50
2023-02-27T06:24:38.743Z,0.47
2023-02-27T06:27:05.226Z,0.35
2023-02-27T06:29:31.958Z,0.01
2023-02-27T06:31:58.448Z,0.25
2023-02-27T06:34:24.914Z,0.38
2023-02-27T06:36:51.381Z,0.27
2023-02-27T06:39:17.896Z,0.37
2023-02-27T06:41:44.371Z,0.37
2023-02-27T06:44:10.813Z,0.70
2023-02-27T06:46:37.325Z,0.75
2023-02-27T06:49:03.855Z,0.40
2023-02-27T06:51:30.590Z,0.90
2023-02-27T06:53:57.162Z,0.74
2023-02-27T06:56:23.694Z,0.90
2023-02-27T06:58:50.125Z,1.11
2023-02-27T07:01:16.836Z,0.93
2023-02-27T07:03:43.276Z,0.83
2023-02-27T07:06:10.021Z,0.89
2023-02-27T07:08:36.453Z,0.90
2023-02-27T07:11:02.892Z,1.07
2023-02-27T07:13:29.319Z,1.11
2023-02-27T07:15:55.813Z,1.28
2023-02-27T07:18:22.266Z,1.41
2023-02-27T07:20:51.819Z,1.28
2023-02-27T07:23:18.440Z,1.42
2023-02-27T07:25:46.312Z,1.54
2023-02-27T07:28:12.763Z,1.88
2023-02-27T07:30:39.181Z,1.84
2023-02-27T07:33:06.034Z,1.81
2023-02-27T07:35:32.572Z,1.90
2023-02-27T07:37:59.065Z,1.66
2023-02-27T07:40:25.526Z,1.91
2023-02-27T07:42:53.223Z,1.84
2023-02-27T07:45:19.798Z,1.92
2023-02-27T07:47:46.647Z,1.87
2023-02-27T07:50:14.085Z,1.91
2023-02-27T07:52:41.132Z,2.26
2023-02-27T07:55:07.949Z,2.57
2023-02-27T07:57:34.893Z,2.22
2023-02-27T08:00:01.292Z,1.95
2023-02-27T08:02:27.860Z,1.99
2023-02-27T08:04:54.394Z,2.44
2023-02-27T08:07:20.879Z,1.99
2023-02-27T08:09:47.292Z,2.23
2023-02-27T08:12:13.712Z,2.41
2023-02-27T08:14:40.129Z,2.53
2023-02-27T08:17:06.642Z,2.51
2023-02-27T08:19:33.084Z,2.55
2023-02-27T08:21:59.556Z,2.74
2023-02-27T08:24:26.008Z,3.06
2023-02-27T08:26:52.562Z,2.61
2023-02-27T08:29:19.007Z,2.94
2023-02-27T08:31:46.863Z,2.76
2023-02-27T08:34:13.334Z,2.72
2023-02-27T08:36:39.813Z,2.61
2023-02-27T08:39:06.718Z,2.94
2023-02-27T08:41:33.503Z,3.31
2023-02-27T08:44:00.082Z,3.08
2023-02-27T08:46:27.146Z,3.49
2023-02-27T08:48:54.732Z,3.63
2023-02-27T08:51:21.399Z,4.01
2023-02-27T08:53:47.817Z,3.60
2023-02-27T08:56:14.447Z,3.81
2023-02-27T08:58:40.866Z,3.65
2023-02-27T09:01:07.352Z,4.23
2023-02-27T09:03:33.819Z,4.12
2023-02-27T09:06:00.340Z,4.94
2023-02-27T09:08:26.834Z,5.53
2023-02-27T09:10:56.020Z,5.21
2023-02-27T09:13:22.758Z,4.84
2023-02-27T09:15:49.165Z,4.34
2023-02-27T09:18:15.632Z,4.70
2023-02-27T09:20:42.077Z,4.62
2023-02-27T09:23:08.500Z,4.42
2023-02-27T09:25:35.064Z,4.47
2023-02-27T09:28:01.540Z,4.69
2023-02-27T09:30:28.079Z,4.86
2023-02-27T09:32:54.596Z,5.01
2023-02-27T09:35:21.095Z,5.42
2023-02-27T09:37:49.364Z,4.90
2023-02-27T09:40:19.808Z,4.76
2023-02-27T09:42:47.656Z,4.88
2023-02-27T09:45:20.109Z,3.90
2023-02-27T09:47:50.454Z,3.88
2023-02-27T09:50:37.123Z,4.37
2023-02-27T09:53:04.719Z,4.73
2023-02-27T09:55:33.522Z,5.47
2023-02-27T09:58:14.576Z,5.68
2023-02-27T10:00:45.841Z,5.45
2023-02-27T10:03:22.174Z,5.32
2023-02-27T10:05:54.692Z,5.33
2023-02-27T10:08:21.030Z,6.10
2023-02-27T10:11:01.053Z,6.45
2023-02-27T10:13:35.094Z,6.57
2023-02-27T10:16:01.629Z,5.62
2023-02-27T10:18:35.354Z,5.50
2023-02-27T10:21:10.461Z,5.90
2023-02-27T10:23:36.889Z,5.78
2023-02-27T10:26:03.962Z,5.66
2023-02-27T10:28:30.493Z,6.20
2023-02-27T10:30:59.229Z,6.45
2023-02-27T10:33:38.908Z,6.12
2023-02-27T10:36:15.773Z,6.46
2023-02-27T10:38:50.147Z,6.07
2023-02-27T10:41:17.308Z,6.43
2023-02-27T10:43:43.838Z,5.40
2023-02-27T10:46:16.331Z,6.56
2023-02-27T10:48:42.842Z,6.63
2023-02-27T10:51:21.700Z,6.89
2023-02-27T10:53:48.161Z,6.57
2023-02-27T10:56:15.746Z,6.59
2023-02-27T10:58:42.157Z,6.88
2023-02-27T11:01:09.980Z,6.69
2023-02-27T11:03:41.337Z,7.26
2023-02-27T11:06:34.607Z,6.98
2023-02-27T11:09:09.846Z,7.20
2023-02-27T11:11:36.254Z,7.02
2023-02-27T11:14:15.432Z,6.82
2023-02-27T11:16:46.354Z,7.54
2023-02-27T11:19:23.818Z,8.12
2023-02-27T11:22:00.815Z,8.19
2023-02-27T11:24:28.985Z,8.62
2023-02-27T11:26:57.661Z,7.83
2023-02-27T11:29:24.139Z,8.42
2023-02-27T11:32:00.817Z,8.31
2023-02-27T11:34:28.563Z,7.62
2023-02-27T11:36:56.678Z,8.37
2023-02-27T11:39:37.605Z,8.18
2023-02-27T11:42:09.541Z,8.36
2023-02-27T11:44:43.243Z,8.18
2023-02-27T11:47:22.383Z,7.88
2023-02-27T11:50:08.846Z,7.86
2023-02-27T11:52:38.179Z,7.87
2023-02-27T11:55:04.793Z,7.60
2023-02-27T11:57:32.642Z,7.35
2023-02-27T12:00:01.554Z,7.31
2023-02-27T12:02:36.655Z,7.77
2023-02-27T12:05:04.891Z,7.41
2023-02-27T12:07:33.954Z,7.61
2023-02-27T12:10:05.597Z,7.59
2023-02-27T12:12:33.992Z,6.70
2023-02-27T12:15:06.228Z,7.28
2023-02-27T12:17:38.823Z,6.09
2023-02-27T12:20:09.771Z,6.67
2023-02-27T12:22:38.601Z,6.07
2023-02-27T12:25:08.481Z,6.45
2023-02-27T12:27:43.847Z,6.67
2023-02-27T12:30:15.300Z,6.28
2023-02-27T12:32:54.974Z,6.06
2023-02-27T12:35:26.826Z,6.48
2023-02-27T12:37:53.289Z,6.43
2023-02-27T12:40:20.737Z,5.91
2023-02-27T12:42:52.990Z,6.16
2023-02-27T12:45:38.129Z,6.10
2023-02-27T12:48:04.971Z,6.40
2023-02-27T12:50:41.651Z,6.48
2023-02-27T12:53:29.686Z,5.95
2023-02-27T12:55:58.205Z,6.37
2023-02-27T12:58:25.465Z,6.63
2023-02-27T13:01:10.630Z,6.16
2023-02-27T13:03:37.125Z,6.20
2023-02-27T13:06:15.273Z,6.20
2023-02-27T13:08:44.860Z,6.35
2023-02-27T13:11:14.467Z,6.32
2023-02-27T13:13:40.834Z,5.82
2023-02-27T13:16:11.498Z,6.12
2023-02-27T13:18:45.877Z,6.08
2023-02-27T13:21:24.692Z,6.04
2023-02-27T13:23:58.455Z,5.90
2023-02-27T13:26:34.409Z,6.18
2023-02-27T13:29:03.414Z,5.96
2023-02-27T13:32:00.148Z,6.07
2023-02-27T13:34:43.663Z,6.16
2023-02-27T13:37:10.188Z,5.90
2023-02-27T13:39:45.943Z,5.78
2023-02-27T13:42:28.094Z,5.40
2023-02-27T13:44:54.559Z,5.93
2023-02-27T13:47:30.037Z,5.94
2023-02-27T13:49:57.057Z,6.37
2023-02-27T13:52:32.969Z,6.12
2023-02-27T13:55:06.237Z,6.45
2023-02-27T13:57:38.205Z,5.53
2023-02-27T14:00:06.036Z,6.50
2023-02-27T14:03:00.481Z,6.34
2023-02-27T14:05:37.624Z,6.25
2023-02-27T14:08:07.009Z,5.94
2023-02-27T14:10:33.513Z,5.75
2023-02-27T14:13:00.237Z,5.34
2023-02-27T14:15:33.872Z,5.35
2023-02-27T14:18:13.849Z,5.36
2023-02-27T14:20:50.052Z,5.35
2023-02-27T14:23:26.260Z,5.44
2023-02-27T14:25:57.041Z,5.28
2023-02-27T14:28:30.746Z,5.15
2023-02-27T14:31:05.818Z,5.05
2023-02-27T14:33:41.054Z,5.44
2023-02-27T14:36:26.699Z,5.18
2023-02-27T14:38:53.720Z,5.28
2023-02-27T14:41:39.592Z,5.42
2023-02-27T14:44:06.086Z,5.24
2023-02-27T14:46:38.678Z,5.22
2023-02-27T14:49:16.732Z,4.94
2023-02-27T14:51:43.437Z,5.11
2023-02-27T14:54:13.072Z,4.94
2023-02-27T14:56:39.894Z,5.02
2023-02-27T14:59:20.969Z,4.98
2023-02-27T15:01:47.424Z,5.05
2023-02-27T15:04:14.899Z,5.36
2023-02-27T15:06:44.322Z,4.68
2023-02-27T15:09:30.981Z,4.54
2023-02-27T15:12:03.882Z,4.66
2023-02-27T15:14:32.204Z,4.70
2023-02-27T15:16:58.648Z,4.73
2023-02-27T15:19:28.788Z,4.59
2023-02-27T15:21:58.541Z,5.02
2023-02-27T15:24:40.657Z,4.96
2023-02-27T15:27:16.282Z,4.90
2023-02-27T15:29:46.263Z,5.22
2023-02-27T15:32:14.636Z,4.91
2023-02-27T15:34:42.485Z,4.71
2023-02-27T15:37:22.879Z,4.92
2023-02-27T15:39:49.993Z,4.94
2023-02-27T15:42:16.784Z,5.11
2023-02-27T15:44:44.596Z,4.64
2023-02-27T15:47:12.875Z,4.89
2023-02-27T15:49:40.765Z,5.02
2023-02-27T15:52:30.469Z,4.77
2023-02-27T15:55:01.220Z,4.71
2023-02-27T15:57:27.689Z,4.86
2023-02-27T15:59:54.825Z,4.96
2023-02-27T16:02:26.615Z,4.85
2023-02-27T16:04:53.070Z,5.03
2023-02-27T16:07:20.696Z,5.30
2023-02-27T16:09:57.158Z,5.00
2023-02-27T16:12:27.615Z,5.07
2023-02-27T16:15:08.774Z,4.75
2023-02-27T16:17:35.227Z,4.62
2023-02-27T16:20:02.521Z,4.29
2023-02-27T16:22:30.494Z,4.10
2023-02-27T16:25:07.843Z,4.47
2023-02-27T16:27:34.373Z,4.20
2023-02-27T16:30:02.664Z,4.45
2023-02-27T16:32:30.464Z,4.68
2023-02-27T16:35:01.648Z,4.60
2023-02-27T16:37:35.057Z,4.29
2023-02-27T16:40:01.806Z,4.57
2023-02-27T16:42:28.281Z,4.42
2023-02-27T16:44:54.736Z,4.48
2023-02-27T16:47:22.820Z,4.56
2023-02-27T16:49:49.478Z,4.56
2023-02-27T16:52:15.968Z,4.59
2023-02-27T16:54:42.459Z,4.83
2023-02-27T16:57:09.614Z,4.81
2023-02-27T16:59:39.089Z,4.71
2023-02-27T17:02:06.914Z,4.74
2023-02-27T17:04:33.732Z,4.73
2023-02-27T17:07:00.715Z,4.80
2023-02-27T17:09:28.440Z,4.83
2023-02-27T17:11:55.259Z,4.89
2023-02-27T17:14:22.167Z,4.70
2023-02-27T17:16:49.160Z,4.65
2023-02-27T17:19:15.808Z,4.47
2023-02-27T17:21:45.850Z,4.61
2023-02-27T17:24:12.287Z,4.73
2023-02-27T17:26:38.785Z,4.83
2023-02-27T17:29:06.389Z,4.79
2023-02-27T17:31:33.018Z,4.58
2023-02-27T17:34:03.651Z,4.39
2023-02-27T17:36:32.832Z,4.50
2023-02-27T17:39:00.753Z,4.80
2023-02-27T17:41:30.935Z,4.82
2023-02-27T17:43:58.066Z,4.92
2023-02-27T17:46:26.154Z,4.66
2023-02-27T17:48:54.089Z,4.57
2023-02-27T17:51:20.591Z,4.35
2023-02-27T17:53:47.028Z,4.62
2023-02-27T17:56:13.855Z,4.59
2023-02-27T17:58:40.616Z,4.56
2023-02-27T18:01:08.021Z,4.59
2023-02-27T18:03:34.593Z,4.58
2023-02-27T18:06:01.310Z,4.59
2023-02-27T18:08:28.893Z,4.66
2023-02-27T18:10:55.669Z,4.73
2023-02-27T18:13:22.098Z,4.56
2023-02-27T18:15:49.640Z,4.39
2023-02-27T18:18:16.088Z,4.19
2023-02-27T18:20:42.556Z,4.54
2023-02-27T18:23:09.390Z,4.21
2023-02-27T18:25:36.672Z,4.47
2023-02-27T18:28:04.246Z,4.48
2023-02-27T18:30:31.470Z,4.58
2023-02-27T18:32:58.138Z,4.42
2023-02-27T18:35:25.019Z,4.31
2023-02-27T18:37:51.698Z,4.37
2023-02-27T18:40:18.380Z,4.39
2023-02-27T18:42:47.741Z,4.17
2023-02-27T18:45:14.472Z,3.95
2023-02-27T18:47:40.990Z,4.15
2023-02-27T18:50:07.575Z,4.09
2023-02-27T18:52:36.886Z,4.29
2023-02-27T18:55:03.887Z,4.32
2023-02-27T18:57:30.313Z,4.03
2023-02-27T18:59:56.810Z,4.10
2023-02-27T19:02:23.680Z,4.16
2023-02-27T19:04:50.150Z,3.98
2023-02-27T19:07:16.853Z,3.87
2023-02-27T19:09:43.593Z,3.63
2023-02-27T19:12:10.915Z,2.97
2023-02-27T19:14:37.986Z,3.07
2023-02-27T19:17:04.665Z,3.04
2023-02-27T19:19:31.093Z,2.80
2023-02-27T19:21:57.532Z,2.80
2023-02-27T19:24:24.138Z,2.59
2023-02-27T19:26:52.474Z,3.11
2023-02-27T19:29:19.876Z,2.97
2023-02-27T19:31:46.467Z,3.04
2023-02-27T19:34:14.789Z,3.23
2023-02-27T19:36:41.577Z,3.14
2023-02-27T19:39:08.061Z,3.37
2023-02-27T19:41:34.489Z,2.89
2023-02-27T19:44:00.995Z,3.10
2023-02-27T19:46:29.286Z,3.19
2023-02-27T19:48:57.316Z,2.92
2023-02-27T19:51:24.067Z,3.22
2023-02-27T19:53:50.590Z,3.30
2023-02-27T19:56:18.601Z,3.08
2023-02-27T19:58:45.406Z,3.05
2023-02-27T20:01:12.441Z,2.91
2023-02-27T20:03:43.465Z,2.59
2023-02-27T20:06:17.506Z,2.62
2023-02-27T20:08:43.941Z,2.88
2023-02-27T20:11:10.561Z,3.00
2023-02-27T20:13:36.977Z,2.90
2023-02-27T20:16:05.297Z,2.80
2023-02-27T20:18:31.988Z,2.86
2023-02-27T20:20:59.333Z,2.43
2023-02-27T20:23:25.788Z,2.73
2023-02-27T20:25:52.209Z,2.26
2023-02-27T20:28:18.603Z,2.56
2023-02-27T20:30:45.006Z,2.38
2023-02-27T20:33:11.497Z,2.46
2023-02-27T20:35:38.274Z,1.82
2023-02-27T20:38:06.318Z,2.38
2023-02-27T20:40:33.117Z,2.19
2023-02-27T20:42:59.537Z,2.22
2023-02-27T20:45:26.080Z,2.39
2023-02-27T20:47:52.529Z,2.23
2023-02-27T20:50:18.970Z,2.48
2023-02-27T20:52:45.435Z,2.65
2023-02-27T20:55:11.890Z,2.37
2023-02-27T20:57:38.300Z,2.53
2023-02-27T21:00:05.437Z,2.45
2023-02-27T21:02:31.849Z,2.46
2023-02-27T21:04:58.826Z,2.50
2023-02-27T21:07:25.484Z,2.26
2023-02-27T21:09:51.981Z,2.48
2023-02-27T21:12:18.461Z,2.50
2023-02-27T21:14:45.277Z,2.75
2023-02-27T21:17:11.911Z,2.77
2023-02-27T21:19:39.898Z,2.80
2023-02-27T21:22:10.865Z,2.68
2023-02-27T21:24:37.487Z,2.23
2023-02-27T21:27:03.984Z,2.44
2023-02-27T21:29:30.403Z,2.38
2023-02-27T21:31:56.872Z,2.35
2023-02-27T21:34:24.793Z,2.35
2023-02-27T21:36:52.353Z,2.46
2023-02-27T21:39:22.866Z,2.24
2023-02-27T21:41:49.677Z,2.45
2023-02-27T21:44:17.320Z,2.64
2023-02-27T21:46:44.024Z,2.29
2023-02-27T21:49:17.476Z,2.61
2023-02-27T21:51:44.148Z,2.57
2023-02-27T21:54:11.799Z,2.74
2023-02-27T21:56:39.240Z,2.70
2023-02-27T21:59:05.846Z,2.58
2023-02-27T22:01:32.764Z,2.60
2023-02-27T22:03:59.368Z,2.66
2023-02-27T22:06:26.846Z,2.29
2023-02-27T22:08:56.622Z,2.27
2023-02-27T22:11:23.580Z,2.16
2023-02-27T22:13:50.013Z,1.99
2023-02-27T22:16:16.591Z,2.09
2023-02-27T22:18:43.042Z,2.11
2023-02-27T22:21:10.686Z,2.06
2023-02-27T22:23:37.981Z,1.99
2023-02-27T22:26:08.777Z,1.82
2023-02-27T22:28:35.350Z,1.83
2023-02-27T22:31:05.712Z,1.91
2023-02-27T22:33:32.180Z,1.77
2023-02-27T22:35:58.761Z,1.79
2023-02-27T22:38:25.330Z,1.61
2023-02-27T22:40:51.783Z,1.69
2023-02-27T22:43:18.465Z,1.57
2023-02-27T22:45:45.736Z,1.68
2023-02-27T22:48:12.172Z,1.52
2023-02-27T22:50:38.578Z,1.38
2023-02-27T22:53:05.060Z,1.60
2023-02-27T22:55:31.543Z,1.76
2023-02-27T22:57:58.187Z,1.59
2023-02-27T23:00:24.635Z,1.67
2023-02-27T23:02:51.076Z,1.37
2023-02-27T23:05:17.513Z,1.56
2023-02-27T23:07:44.015Z,1.45
2023-02-27T23:10:12.195Z,1.16
2023-02-27T23:12:38.705Z,1.54
2023-02-27T23:15:05.411Z,1.70
2023-02-27T23:17:33.036Z,1.39
2023-02-27T23:19:59.700Z,1.39
2023-02-27T23:22:26.145Z,1.39
2023-02-27T23:24:52.618Z,1.50
2023-02-27T23:27:25.823Z,1.26
2023-02-27T23:29:52.815Z,1.27
2023-02-27T23:32:19.790Z,1.38
2023-02-27T23:34:55.562Z,0.92
2023-02-27T23:37:22.025Z,1.23
2023-02-27T23:39:48.453Z,1.32
2023-02-27T23:42:15.753Z,1.06
2023-02-27T23:45:00.989Z,1.06
2023-02-27T23:47:45.776Z,1.07
2023-02-27T23:50:13.117Z,1.35
2023-02-27T23:52:39.615Z,1.00
2023-02-27T23:55:06.308Z,1.10
2023-02-27T23:57:32.773Z,0.90
2023-02-27T23:59:59.210Z,0.92
